Terminal Aerodrome Forecast
Issued by NWS

Home | Current Version | Previous Version | Text Only | Print | Product List | Glossary On
Versions: 1 2 3 4 5 6 7 8 9 10 11 12 13 14
000
FTUS41 KBTV 260532
TAFMSS
TAF
KMSS 260532Z 2606/2706 VRB03KT P6SM BKN070
     FM261200 04005KT P6SM SCT200
     FM270100 06006KT P6SM VCSH BKN050=

USA.gov is the U.S. government's official web portal to all federal, state and local government web resources and services.